createdAt,value
2019-01-29T00:02:47.955Z,6.33
2019-01-29T00:08:52.823Z,7.27
2019-01-29T00:14:57.365Z,8.43
2019-01-29T00:21:01.645Z,8.83
2019-01-29T00:27:06.095Z,9.90
2019-01-29T00:33:10.290Z,6.63
2019-01-29T00:39:14.528Z,8.50
2019-01-29T00:45:18.826Z,9.27
2019-01-29T00:51:23.144Z,6.40
2019-01-29T00:57:27.369Z,10.20
2019-01-29T01:03:31.664Z,10.17
2019-01-29T01:09:35.880Z,7.60
2019-01-29T01:15:40.224Z,7.27
2019-01-29T01:21:44.477Z,6.73
2019-01-29T01:27:48.703Z,7.97
2019-01-29T01:33:52.932Z,8.27
2019-01-29T01:39:57.217Z,7.83
2019-01-29T01:46:01.473Z,6.67
2019-01-29T01:52:05.809Z,7.73
2019-01-29T01:58:10.009Z,7.67
2019-01-29T02:04:14.361Z,6.67
2019-01-29T02:10:26.996Z,7.10
2019-01-29T02:16:31.209Z,6.17
2019-01-29T02:22:35.501Z,7.43
2019-01-29T02:28:39.697Z,6.23
2019-01-29T02:34:44.018Z,7.67
2019-01-29T02:40:48.217Z,11.67
2019-01-29T02:46:52.609Z,5.53
2019-01-29T02:52:56.919Z,5.23
2019-01-29T02:59:01.157Z,5.03
2019-01-29T03:05:06.391Z,5.80
2019-01-29T03:11:10.621Z,6.87
2019-01-29T03:17:14.829Z,7.83
2019-01-29T03:23:27.291Z,8.70
2019-01-29T03:29:25.056Z,6.10
2019-01-29T03:35:29.330Z,5.30
2019-01-29T03:41:33.731Z,8.37
2019-01-29T03:47:37.948Z,6.70
2019-01-29T03:53:42.189Z,5.37
2019-01-29T03:59:46.386Z,8.13
2019-01-29T04:05:50.709Z,6.07
2019-01-29T04:11:54.938Z,4.97
2019-01-29T04:17:59.708Z,5.97
2019-01-29T04:24:03.959Z,7.53
2019-01-29T04:30:10.306Z,8.00
2019-01-29T04:36:14.602Z,8.83
2019-01-29T04:42:18.924Z,7.60
2019-01-29T04:48:23.141Z,6.07
2019-01-29T04:54:27.474Z,9.13
2019-01-29T05:00:31.686Z,8.73
2019-01-29T05:06:35.975Z,11.60
2019-01-29T05:12:40.178Z,9.77
2019-01-29T05:18:44.409Z,8.57
2019-01-29T05:24:48.714Z,7.87
2019-01-29T05:30:53.001Z,9.30
2019-01-29T05:36:57.277Z,9.97
2019-01-29T05:43:01.560Z,10.90
2019-01-29T05:49:05.918Z,11.93
2019-01-29T05:55:10.665Z,11.87
2019-01-29T06:01:14.956Z,10.87
2019-01-29T06:07:19.249Z,12.00
2019-01-29T06:13:23.465Z,7.93
2019-01-29T06:19:27.687Z,9.67
2019-01-29T06:25:31.910Z,9.07
2019-01-29T06:31:36.165Z,9.63
2019-01-29T06:37:40.453Z,15.50
2019-01-29T06:43:44.794Z,10.73
2019-01-29T06:49:49.012Z,16.27
2019-01-29T06:55:53.390Z,23.30
2019-01-29T07:01:57.660Z,25.03
2019-01-29T07:08:01.874Z,13.60
2019-01-29T07:14:06.152Z,12.50
2019-01-29T07:20:12.445Z,11.07
2019-01-29T07:26:16.649Z,8.47
2019-01-29T07:32:20.960Z,16.00
2019-01-29T07:38:25.334Z,13.93
2019-01-29T07:44:29.550Z,12.97
2019-01-29T07:50:33.753Z,11.93
2019-01-29T07:56:38.099Z,12.37
2019-01-29T08:02:42.364Z,28.57
2019-01-29T08:08:46.564Z,14.80
2019-01-29T08:14:50.843Z,12.07
2019-01-29T08:20:55.075Z,14.97
2019-01-29T08:26:59.350Z,10.00
2019-01-29T08:33:03.772Z,14.00
2019-01-29T08:39:09.482Z,18.87
2019-01-29T08:45:13.794Z,13.20
2019-01-29T08:51:18.088Z,10.17
2019-01-29T08:57:22.310Z,14.20
2019-01-29T09:03:26.573Z,11.30
2019-01-29T09:09:30.864Z,18.73
2019-01-29T09:15:35.187Z,11.40
2019-01-29T09:21:39.565Z,9.53
2019-01-29T09:27:43.892Z,22.73
2019-01-29T09:33:48.167Z,10.47
2019-01-29T09:39:52.449Z,10.87
2019-01-29T09:45:56.631Z,16.67
2019-01-29T09:52:00.846Z,13.07
2019-01-29T09:58:05.257Z,12.57
2019-01-29T10:04:09.469Z,12.03
2019-01-29T10:10:14.018Z,11.63
2019-01-29T10:16:18.300Z,11.37
2019-01-29T10:22:22.674Z,10.23
2019-01-29T10:28:26.966Z,9.40
2019-01-29T10:34:31.171Z,13.70
2019-01-29T10:40:35.528Z,17.00
2019-01-29T10:46:39.852Z,9.27
2019-01-29T10:52:44.142Z,10.93
2019-01-29T10:58:48.402Z,12.53
2019-01-29T11:04:52.614Z,9.97
2019-01-29T11:10:56.915Z,12.47
2019-01-29T11:17:01.286Z,11.97
2019-01-29T11:23:05.576Z,12.30
2019-01-29T11:29:09.811Z,10.73
2019-01-29T11:35:14.334Z,11.40
2019-01-29T11:41:19.800Z,14.13
2019-01-29T11:47:24.262Z,12.60
2019-01-29T11:53:28.582Z,12.20
2019-01-29T11:59:33.050Z,18.37
2019-01-29T12:05:37.415Z,9.47
2019-01-29T12:11:41.751Z,12.93
2019-01-29T12:17:46.156Z,11.10
2019-01-29T12:23:50.467Z,8.93
2019-01-29T12:29:54.855Z,10.73
2019-01-29T12:35:59.079Z,10.20
2019-01-29T12:42:03.561Z,9.47
2019-01-29T12:48:08.221Z,7.50
2019-01-29T12:54:12.477Z,8.50
2019-01-29T13:00:17.884Z,10.53
2019-01-29T13:06:22.201Z,8.30
2019-01-29T13:12:26.545Z,8.67
2019-01-29T13:18:30.776Z,9.67
2019-01-29T13:24:34.997Z,5.95
2019-01-29T13:30:39.323Z,9.68
2019-01-29T13:36:43.509Z,5.60
2019-01-29T13:42:47.845Z,7.47
2019-01-29T13:48:52.087Z,11.80
2019-01-29T13:54:56.389Z,9.58
2019-01-29T14:01:00.723Z,9.65
2019-01-29T14:07:05.019Z,12.18
2019-01-29T14:13:09.237Z,11.90
2019-01-29T14:19:13.585Z,9.77
2019-01-29T14:25:17.816Z,10.77
2019-01-29T14:31:22.230Z,21.17
2019-01-29T14:37:26.541Z,9.43
2019-01-29T14:43:32.042Z,8.03
2019-01-29T14:49:36.252Z,7.87
2019-01-29T14:55:40.545Z,9.58
2019-01-29T15:01:44.899Z,9.63
2019-01-29T15:07:49.224Z,14.83
2019-01-29T15:13:53.734Z,10.65
2019-01-29T15:19:58.225Z,8.85
2019-01-29T15:26:02.431Z,10.97
2019-01-29T15:32:06.746Z,8.50
2019-01-29T15:38:10.949Z,10.13
2019-01-29T15:44:15.195Z,11.47
2019-01-29T15:50:21.427Z,8.97
2019-01-29T15:56:26.418Z,8.77
2019-01-29T16:02:31.077Z,9.67
2019-01-29T16:08:35.292Z,7.90
2019-01-29T16:14:39.521Z,9.73
2019-01-29T16:20:43.824Z,11.00
2019-01-29T16:26:48.183Z,16.20
2019-01-29T16:32:52.419Z,17.10
2019-01-29T16:38:56.647Z,10.73
2019-01-29T16:45:00.876Z,11.23
2019-01-29T16:51:05.201Z,13.27
2019-01-29T16:57:09.503Z,15.17
2019-01-29T17:03:13.819Z,20.40
2019-01-29T17:09:18.103Z,9.40
2019-01-29T17:15:24.964Z,9.37
2019-01-29T17:21:29.459Z,20.87
2019-01-29T17:27:40.040Z,13.23
2019-01-29T17:33:40.511Z,14.23
2019-01-29T17:39:45.369Z,13.63
2019-01-29T17:45:50.924Z,15.23
2019-01-29T17:51:55.259Z,13.20
2019-01-29T17:57:59.855Z,9.40
2019-01-29T18:04:05.146Z,15.90
2019-01-29T18:10:10.566Z,35.50
2019-01-29T18:16:14.829Z,22.03
2019-01-29T18:22:19.065Z,18.23
2019-01-29T18:28:23.367Z,13.43
2019-01-29T18:34:27.686Z,16.37
2019-01-29T18:40:38.041Z,12.67
2019-01-29T18:46:42.534Z,13.53
2019-01-29T18:52:46.956Z,12.40
2019-01-29T18:58:52.097Z,21.87
2019-01-29T19:04:56.390Z,26.93
2019-01-29T19:11:00.681Z,16.10
2019-01-29T19:17:04.926Z,11.23
2019-01-29T19:23:09.186Z,15.47
2019-01-29T19:29:13.439Z,15.37
2019-01-29T19:35:17.660Z,12.33
2019-01-29T19:41:21.870Z,10.90
2019-01-29T19:47:26.350Z,13.97
2019-01-29T19:53:30.581Z,13.13
2019-01-29T19:59:34.828Z,11.70
2019-01-29T20:05:39.351Z,13.33
2019-01-29T20:11:43.921Z,15.30
2019-01-29T20:17:50.087Z,22.40
2019-01-29T20:23:54.377Z,31.50
2019-01-29T20:29:58.937Z,17.90
2019-01-29T20:36:03.332Z,15.07
2019-01-29T20:42:07.610Z,17.57
2019-01-29T20:48:11.993Z,15.77
2019-01-29T20:54:16.295Z,14.67
2019-01-29T21:00:23.194Z,15.83
2019-01-29T21:06:27.530Z,13.93
2019-01-29T21:12:31.997Z,15.23
2019-01-29T21:18:36.440Z,10.93
2019-01-29T21:24:40.755Z,12.27
2019-01-29T21:30:45.706Z,13.87
2019-01-29T21:36:50.118Z,15.73
2019-01-29T21:42:54.332Z,16.23
2019-01-29T21:48:58.765Z,12.60
2019-01-29T21:55:03.059Z,13.57
2019-01-29T22:01:07.367Z,14.70
2019-01-29T22:07:11.969Z,12.50
2019-01-29T22:13:16.356Z,14.87
2019-01-29T22:19:20.738Z,14.40
2019-01-29T22:25:25.520Z,13.00
2019-01-29T22:31:29.858Z,13.60
2019-01-29T22:37:34.064Z,13.80
2019-01-29T22:43:38.578Z,15.07
2019-01-29T22:49:42.830Z,18.23
2019-01-29T22:55:47.228Z,16.43
2019-01-29T23:01:51.466Z,17.23
2019-01-29T23:07:55.710Z,16.07
2019-01-29T23:14:00.044Z,13.77
2019-01-29T23:20:06.230Z,15.90
2019-01-29T23:26:10.552Z,23.50
2019-01-29T23:32:14.869Z,19.07
2019-01-29T23:38:19.102Z,24.03
2019-01-29T23:44:23.502Z,24.23
2019-01-29T23:50:28.656Z,29.10
2019-01-29T23:56:32.895Z,24.93
